Time;durP1;ratioP1;P1;durP2;ratioP2;P2;SDS_P1;SDS_P2;PMS_P1;PMS_P2;Temp;Humidity;BMP_temperature;BMP_pressure;BME280_temperature;BME280_humidity;BME280_pressure;Samples;Min_cycle;Max_cycle;Signal;HPM_P1;HPM_P2
2023/04/25 00:01:37;;;;;;;15.93;6.00;;;8.40;99.90;;;;;;5106999;28;20043;-37
2023/04/25 00:04:05;;;;;;;19.48;7.20;;;8.40;99.90;;;;;;5107745;28;20400;-38
2023/04/25 00:06:32;;;;;;;13.73;5.75;;;8.30;99.90;;;;;;5107310;28;20070;-37
2023/04/25 00:08:57;;;;;;;13.23;5.32;;;8.30;99.90;;;;;;5107252;28;20019;-37
2023/04/25 00:11:24;;;;;;;16.90;6.80;;;8.30;99.90;;;;;;5088308;28;20030;-38
2023/04/25 00:13:52;;;;;;;15.90;6.20;;;8.30;99.90;;;;;;5107482;28;20024;-38
2023/04/25 00:16:18;;;;;;;20.02;5.95;;;8.30;99.90;;;;;;5109559;28;20031;-38
2023/04/25 00:18:46;;;;;;;14.88;5.88;;;8.20;99.90;;;;;;5114293;27;20024;-38
2023/04/25 00:21:11;;;;;;;10.55;5.50;;;8.20;99.90;;;;;;5109850;28;20027;-38
2023/04/25 00:23:38;;;;;;;14.68;5.75;;;8.20;99.90;;;;;;5110613;28;20437;-38
2023/04/25 00:26:04;;;;;;;12.35;5.75;;;8.20;99.90;;;;;;5112126;27;20022;-38
2023/04/25 00:28:29;;;;;;;20.10;7.00;;;8.20;99.90;;;;;;5110182;28;20600;-38
2023/04/25 00:30:55;;;;;;;16.08;6.43;;;8.20;99.90;;;;;;5110168;28;20100;-37
2023/04/25 00:33:20;;;;;;;16.80;6.40;;;8.20;99.90;;;;;;5110480;28;20194;-37
2023/04/25 00:35:46;;;;;;;17.83;6.18;;;8.10;99.90;;;;;;5110594;28;20020;-37
2023/04/25 00:38:12;;;;;;;13.85;6.18;;;8.10;99.90;;;;;;5110293;28;20027;-37
2023/04/25 00:40:37;;;;;;;12.30;5.95;;;8.10;99.90;;;;;;5110260;28;20072;-37
2023/04/25 00:43:03;;;;;;;15.00;6.82;;;8.00;99.90;;;;;;5110642;28;20111;-38
2023/04/25 00:45:30;;;;;;;23.17;6.60;;;8.00;99.90;;;;;;5109637;28;20396;-37
2023/04/25 00:47:56;;;;;;;15.63;6.75;;;8.10;99.90;;;;;;5109754;28;20438;-37
2023/04/25 00:50:22;;;;;;;17.38;7.30;;;8.10;99.90;;;;;;5110054;28;20108;-37
2023/04/25 00:52:47;;;;;;;21.30;7.25;;;8.10;99.90;;;;;;5109950;28;20096;-37
2023/04/25 00:55:15;;;;;;;15.77;6.85;;;8.10;99.90;;;;;;5109762;27;20034;-37
2023/04/25 00:57:41;;;;;;;20.60;8.43;;;8.10;99.90;;;;;;5094832;28;20366;-38
2023/04/25 01:00:09;;;;;;;16.52;7.60;;;8.00;99.90;;;;;;5109200;28;20342;-37
2023/04/25 01:02:35;;;;;;;18.25;7.43;;;8.00;99.90;;;;;;5109177;28;20079;-37
2023/04/25 01:05:02;;;;;;;16.77;7.60;;;8.10;99.90;;;;;;5109070;28;20027;-38
2023/04/25 01:07:28;;;;;;;16.75;7.45;;;8.00;99.90;;;;;;5109259;28;20031;-37
2023/04/25 01:09:53;;;;;;;17.10;7.10;;;8.10;99.90;;;;;;5108858;28;20024;-37
2023/04/25 01:12:19;;;;;;;14.10;7.32;;;8.10;99.90;;;;;;5108424;28;20039;-37
2023/04/25 01:14:46;;;;;;;15.98;6.82;;;8.10;99.90;;;;;;5109684;28;20042;-37
2023/04/25 01:17:11;;;;;;;16.83;6.55;;;8.10;99.90;;;;;;5109605;28;20441;-37
2023/04/25 01:19:37;;;;;;;19.20;7.03;;;8.10;99.90;;;;;;5109707;28;20451;-38
2023/04/25 01:22:03;;;;;;;19.60;7.65;;;8.10;99.90;;;;;;5109229;28;20027;-37
2023/04/25 01:24:29;;;;;;;16.45;7.80;;;8.10;99.90;;;;;;5109468;28;20063;-37
2023/04/25 01:26:56;;;;;;;13.40;7.57;;;8.10;99.90;;;;;;5095429;27;20131;-38
2023/04/25 01:29:22;;;;;;;15.10;7.75;;;8.10;99.90;;;;;;5090177;28;20153;-37
2023/04/25 01:31:48;;;;;;;15.70;6.82;;;8.10;99.90;;;;;;5109170;28;20282;-37
2023/04/25 01:34:14;;;;;;;16.90;7.60;;;8.10;99.90;;;;;;5109314;28;20139;-37
2023/04/25 01:36:40;;;;;;;18.23;7.30;;;8.00;99.90;;;;;;5109350;28;20556;-38
2023/04/25 01:39:06;;;;;;;23.70;8.02;;;8.00;99.90;;;;;;5109279;28;20031;-37
2023/04/25 01:41:32;;;;;;;20.42;9.10;;;8.00;99.90;;;;;;5109398;28;20085;-37
2023/04/25 01:43:58;;;;;;;21.05;7.95;;;8.00;99.90;;;;;;5108993;28;20489;-37
2023/04/25 01:46:24;;;;;;;16.83;7.28;;;7.90;99.90;;;;;;5108474;28;20114;-37
2023/04/25 01:48:49;;;;;;;19.30;8.25;;;7.90;99.90;;;;;;5107835;28;20092;-37
2023/04/25 01:51:15;;;;;;;17.27;7.93;;;7.90;99.90;;;;;;5090029;28;20099;-36
2023/04/25 01:53:42;;;;;;;13.18;7.50;;;7.90;99.90;;;;;;5108216;28;20035;-36
2023/04/25 01:56:07;;;;;;;19.33;7.30;;;7.80;99.90;;;;;;5108260;28;20362;-36
2023/04/25 01:58:33;;;;;;;17.42;7.25;;;7.80;99.90;;;;;;5113151;27;20493;-36
2023/04/25 02:00:59;;;;;;;15.27;6.47;;;7.80;99.90;;;;;;5107524;28;20036;-36
2023/04/25 02:03:25;;;;;;;20.02;7.03;;;7.90;99.90;;;;;;5108426;28;20053;-36
2023/04/25 02:05:51;;;;;;;14.43;6.97;;;7.90;99.90;;;;;;5108286;28;20104;-36
2023/04/25 02:08:18;;;;;;;19.83;7.03;;;7.90;99.90;;;;;;5107843;28;20182;-36
2023/04/25 02:10:43;;;;;;;14.10;7.35;;;7.90;99.90;;;;;;5106667;28;20058;-36
2023/04/25 02:13:09;;;;;;;16.00;8.07;;;7.90;99.90;;;;;;5107908;28;20059;-36
2023/04/25 02:15:35;;;;;;;17.58;7.70;;;7.90;99.90;;;;;;5107882;28;20216;-36
2023/04/25 02:18:00;;;;;;;19.08;7.43;;;7.90;99.90;;;;;;5089738;28;20039;-36
2023/04/25 02:20:27;;;;;;;22.35;8.10;;;8.00;99.90;;;;;;5108019;28;20480;-37
2023/04/25 02:22:52;;;;;;;15.32;7.22;;;8.00;99.90;;;;;;5107808;28;20051;-36
2023/04/25 02:25:19;;;;;;;16.67;6.57;;;7.90;99.90;;;;;;5107969;28;20448;-36
2023/04/25 02:27:46;;;;;;;25.70;8.20;;;7.90;99.90;;;;;;5113351;27;20041;-36
2023/04/25 02:30:12;;;;;;;14.38;6.97;;;7.90;99.90;;;;;;5107841;28;20112;-37
2023/04/25 02:32:38;;;;;;;24.58;7.90;;;7.90;99.90;;;;;;5107609;28;20130;-36
2023/04/25 02:35:04;;;;;;;17.92;7.32;;;8.00;99.90;;;;;;5108104;28;20030;-37
2023/04/25 02:37:30;;;;;;;32.67;9.02;;;8.00;99.90;;;;;;5108154;28;20086;-37
2023/04/25 02:39:56;;;;;;;23.20;7.95;;;8.00;99.90;;;;;;5114246;27;20024;-37
2023/04/25 02:42:22;;;;;;;20.95;8.00;;;8.00;99.90;;;;;;5107429;28;20081;-37
2023/04/25 02:44:47;;;;;;;16.42;7.68;;;8.00;99.90;;;;;;5107382;28;20106;-37
2023/04/25 02:47:13;;;;;;;16.20;8.70;;;8.00;99.90;;;;;;5108038;28;20030;-37
2023/04/25 02:49:38;;;;;;;18.65;8.43;;;7.90;99.90;;;;;;5107682;28;20090;-37
2023/04/25 02:52:04;;;;;;;19.42;7.97;;;7.90;99.90;;;;;;5088886;28;20572;-37
2023/04/25 02:54:30;;;;;;;21.20;7.88;;;7.90;99.90;;;;;;5107564;28;20027;-37
2023/04/25 02:56:55;;;;;;;13.45;7.60;;;7.90;99.90;;;;;;5106824;28;20129;-38
2023/04/25 02:59:21;;;;;;;18.00;7.97;;;7.90;99.90;;;;;;5106809;28;20435;-37
2023/04/25 03:01:47;;;;;;;22.70;7.28;;;7.90;99.90;;;;;;5106855;28;20038;-37
2023/04/25 03:04:12;;;;;;;26.98;10.43;;;7.90;99.90;;;;;;5107065;28;20023;-38
2023/04/25 03:06:38;;;;;;;19.48;9.75;;;7.90;99.90;;;;;;5107165;28;20493;-38
2023/04/25 03:09:03;;;;;;;25.65;9.55;;;7.70;99.90;;;;;;5113866;28;20312;-37
2023/04/25 03:11:29;;;;;;;25.10;10.77;;;7.60;99.90;;;;;;5106495;28;20225;-37
2023/04/25 03:13:55;;;;;;;26.85;10.02;;;7.50;99.90;;;;;;5106600;28;20023;-37
2023/04/25 03:16:21;;;;;;;26.10;11.20;;;7.50;99.90;;;;;;5112479;28;20393;-37
2023/04/25 03:18:47;;;;;;;24.75;10.75;;;7.40;99.90;;;;;;5106574;28;20012;-37
2023/04/25 03:21:12;;;;;;;27.38;12.27;;;7.40;99.90;;;;;;5106778;28;20023;-37
2023/04/25 03:23:38;;;;;;;27.02;10.85;;;7.30;99.90;;;;;;5089191;28;20044;-37
2023/04/25 03:26:04;;;;;;;24.73;11.63;;;7.30;99.90;;;;;;5107327;28;20049;-38
2023/04/25 03:28:29;;;;;;;26.85;11.45;;;7.30;99.90;;;;;;5106564;28;20040;-38
2023/04/25 03:30:55;;;;;;;24.67;12.35;;;7.30;99.90;;;;;;5106069;28;20023;-37
2023/04/25 03:33:20;;;;;;;30.20;11.77;;;7.20;99.90;;;;;;5107355;28;20055;-37
2023/04/25 03:35:46;;;;;;;26.42;12.05;;;7.10;99.90;;;;;;5106766;28;20042;-38
2023/04/25 03:38:11;;;;;;;28.08;11.90;;;7.10;99.90;;;;;;5106572;28;20042;-38
2023/04/25 03:40:37;;;;;;;26.50;11.93;;;7.10;99.90;;;;;;5106409;28;20496;-38
2023/04/25 03:43:02;;;;;;;27.42;12.32;;;7.10;99.90;;;;;;5088263;28;20481;-38
2023/04/25 03:45:28;;;;;;;30.08;13.73;;;7.10;99.90;;;;;;5113550;28;20028;-38
2023/04/25 03:47:53;;;;;;;39.13;13.95;;;7.10;99.90;;;;;;5106580;28;20031;-37
2023/04/25 03:50:20;;;;;;;26.77;13.68;;;7.10;99.90;;;;;;5107819;28;20669;-37
2023/04/25 03:52:45;;;;;;;20.85;10.27;;;7.00;99.90;;;;;;5110594;28;20063;-37
2023/04/25 03:55:11;;;;;;;27.08;11.43;;;7.00;99.90;;;;;;5110968;28;20051;-37
2023/04/25 03:57:36;;;;;;;26.27;11.75;;;7.00;99.90;;;;;;5110531;28;20484;-37
2023/04/25 04:00:03;;;;;;;26.52;12.35;;;7.00;99.90;;;;;;5110972;28;20088;-37
2023/04/25 04:02:29;;;;;;;24.63;11.00;;;7.00;99.90;;;;;;5110791;28;20042;-37
2023/04/25 04:04:56;;;;;;;23.38;9.93;;;7.00;99.90;;;;;;5092518;28;20412;-37
2023/04/25 04:07:21;;;;;;;22.45;10.27;;;7.00;99.90;;;;;;5111011;28;20027;-38
2023/04/25 04:09:47;;;;;;;25.95;10.50;;;7.00;99.90;;;;;;5110666;28;20084;-37
2023/04/25 04:12:12;;;;;;;23.10;8.25;;;6.90;99.90;;;;;;5109659;28;20070;-37
2023/04/25 04:14:38;;;;;;;28.63;9.95;;;6.90;99.90;;;;;;5112317;27;20146;-38
2023/04/25 04:17:03;;;;;;;24.48;8.85;;;6.90;99.90;;;;;;5112518;27;20038;-38
2023/04/25 04:19:29;;;;;;;25.88;8.70;;;6.80;99.90;;;;;;5090701;28;20032;-38
2023/04/25 04:21:55;;;;;;;26.30;8.05;;;6.70;99.90;;;;;;5090207;28;20111;-38
2023/04/25 04:24:20;;;;;;;22.38;7.32;;;6.70;99.90;;;;;;5109250;28;20035;-39
2023/04/25 04:26:46;;;;;;;20.98;7.35;;;6.70;99.90;;;;;;5108908;28;20034;-38
2023/04/25 04:29:11;;;;;;;26.35;7.20;;;6.70;99.90;;;;;;5109656;28;20059;-38
2023/04/25 04:31:37;;;;;;;24.85;7.50;;;6.70;99.90;;;;;;5091248;28;20024;-38
2023/04/25 04:34:03;;;;;;;27.50;8.05;;;6.60;99.90;;;;;;5109949;28;20035;-38
2023/04/25 04:36:29;;;;;;;25.83;7.28;;;6.60;99.90;;;;;;5109792;28;20028;-38
2023/04/25 04:38:56;;;;;;;20.60;7.03;;;6.70;99.90;;;;;;5090890;28;20102;-38
2023/04/25 04:41:21;;;;;;;21.85;7.05;;;6.70;99.90;;;;;;5109515;28;20019;-38
2023/04/25 04:43:47;;;;;;;34.97;7.88;;;6.70;99.90;;;;;;5109828;28;20377;-38
2023/04/25 04:46:13;;;;;;;27.30;7.82;;;6.70;99.90;;;;;;5098512;28;20023;-38
2023/04/25 04:48:39;;;;;;;30.52;7.38;;;6.70;99.90;;;;;;5109727;28;20027;-38
2023/04/25 04:51:06;;;;;;;32.55;7.85;;;6.70;99.90;;;;;;5110020;28;20024;-38
2023/04/25 04:53:32;;;;;;;20.63;6.80;;;6.80;99.90;;;;;;5091667;28;20069;-38
2023/04/25 04:55:58;;;;;;;34.40;7.40;;;6.80;99.90;;;;;;5109661;28;20247;-38
2023/04/25 04:58:23;;;;;;;28.00;7.82;;;6.80;99.90;;;;;;5108817;28;20270;-38
2023/04/25 05:00:49;;;;;;;26.85;7.93;;;6.80;99.90;;;;;;5110755;27;20400;-39
2023/04/25 05:03:15;;;;;;;29.05;7.45;;;6.80;99.90;;;;;;5109675;27;20015;-38
2023/04/25 05:05:41;;;;;;;26.30;7.43;;;6.80;99.90;;;;;;5108933;28;20023;-38
2023/04/25 05:08:06;;;;;;;22.45;7.78;;;6.80;99.90;;;;;;5108854;28;20019;-38
2023/04/25 05:10:32;;;;;;;36.90;8.60;;;6.70;99.90;;;;;;5108427;28;20031;-38
2023/04/25 05:12:58;;;;;;;39.58;7.70;;;6.70;99.90;;;;;;5090629;28;20028;-38
2023/04/25 05:15:23;;;;;;;27.38;6.50;;;6.60;99.90;;;;;;5109259;28;20039;-38
2023/04/25 05:17:49;;;;;;;35.45;7.38;;;6.60;99.90;;;;;;5108871;28;20031;-38
2023/04/25 05:20:15;;;;;;;35.35;7.60;;;6.60;99.90;;;;;;5108735;28;20293;-38
2023/04/25 05:22:41;;;;;;;36.97;8.05;;;6.60;99.90;;;;;;5108337;28;20020;-38
2023/04/25 05:25:10;;;;;;;34.22;7.35;;;6.60;99.90;;;;;;5108613;28;20055;-38
2023/04/25 05:27:36;;;;;;;37.50;7.47;;;6.70;99.90;;;;;;5108688;28;20019;-38
2023/04/25 05:30:01;;;;;;;27.17;7.15;;;6.70;99.90;;;;;;5093904;28;20396;-38
2023/04/25 05:32:27;;;;;;;27.45;7.13;;;6.70;99.90;;;;;;5108551;28;20385;-38
2023/04/25 05:34:52;;;;;;;29.35;8.05;;;6.70;99.90;;;;;;5109381;28;20031;-38
2023/04/25 05:37:18;;;;;;;37.22;7.72;;;6.70;99.90;;;;;;5109100;28;20202;-38
2023/04/25 05:39:43;;;;;;;29.83;8.13;;;6.70;99.90;;;;;;5114482;27;20023;-38
2023/04/25 05:42:10;;;;;;;24.80;7.05;;;6.70;99.90;;;;;;5107544;27;20031;-38
2023/04/25 05:44:35;;;;;;;37.28;7.10;;;6.70;99.90;;;;;;5092741;27;20075;-38
2023/04/25 05:47:01;;;;;;;30.58;7.05;;;6.60;99.90;;;;;;5127912;27;20019;-38
2023/04/25 05:49:26;;;;;;;27.45;6.50;;;6.60;99.90;;;;;;5120016;27;20539;-38
2023/04/25 05:51:52;;;;;;;38.10;6.22;;;6.70;99.90;;;;;;5107935;28;20051;-38
2023/04/25 05:54:17;;;;;;;25.90;5.63;;;6.70;99.90;;;;;;5107353;27;20020;-37
2023/04/25 05:56:43;;;;;;;27.05;6.75;;;6.80;99.90;;;;;;5113814;27;20027;-37
2023/04/25 05:59:08;;;;;;;26.60;7.00;;;6.90;99.90;;;;;;5118720;27;20062;-37
2023/04/25 06:01:34;;;;;;;29.48;6.97;;;7.00;99.90;;;;;;5107647;28;20082;-38
2023/04/25 06:03:59;;;;;;;29.85;5.57;;;7.20;99.90;;;;;;5107790;28;20289;-38
2023/04/25 06:06:25;;;;;;;23.70;4.78;;;7.30;99.90;;;;;;5072465;28;20500;-37
2023/04/25 06:08:51;;;;;;;30.02;6.97;;;7.30;99.90;;;;;;5109527;27;20030;-37
2023/04/25 06:11:16;;;;;;;29.38;5.85;;;7.40;99.90;;;;;;5109811;27;20028;-37
2023/04/25 06:13:42;;;;;;;26.45;6.20;;;7.40;99.90;;;;;;5106818;28;20015;-37
2023/04/25 06:16:07;;;;;;;29.48;7.07;;;7.50;99.90;;;;;;5106635;28;20042;-38
2023/04/25 06:18:33;;;;;;;27.30;6.65;;;7.50;99.90;;;;;;5106662;28;20512;-37
2023/04/25 06:20:58;;;;;;;31.80;6.35;;;7.40;99.90;;;;;;5087671;28;20019;-37
2023/04/25 06:23:24;;;;;;;31.83;6.68;;;7.50;99.90;;;;;;5106386;28;20036;-37
2023/04/25 06:25:50;;;;;;;27.40;6.38;;;7.50;99.90;;;;;;5106761;28;20068;-37
2023/04/25 06:28:15;;;;;;;31.50;8.50;;;7.40;99.90;;;;;;5107030;28;20027;-37
2023/04/25 06:30:41;;;;;;;30.45;6.78;;;7.40;99.90;;;;;;5106472;28;20051;-37
2023/04/25 06:33:08;;;;;;;22.38;5.55;;;7.40;99.90;;;;;;5107140;28;20648;-37
2023/04/25 06:35:34;;;;;;;24.27;5.70;;;7.50;99.90;;;;;;5106181;28;20023;-37
2023/04/25 06:37:59;;;;;;;33.33;7.28;;;7.50;99.90;;;;;;5105974;27;21110;-37
2023/04/25 06:40:25;;;;;;;24.88;6.85;;;7.50;99.90;;;;;;5112116;27;20023;-37
2023/04/25 06:42:50;;;;;;;28.88;7.10;;;7.50;99.90;;;;;;5119100;27;20091;-37
2023/04/25 06:45:16;;;;;;;40.88;7.35;;;7.50;99.90;;;;;;5119983;27;20023;-37
2023/04/25 06:47:42;;;;;;;26.02;5.45;;;7.50;99.90;;;;;;5119022;27;20412;-37
2023/04/25 06:50:07;;;;;;;25.95;6.65;;;7.50;99.90;;;;;;5122100;27;20033;-37
2023/04/25 06:52:33;;;;;;;22.70;6.22;;;7.50;99.90;;;;;;5115321;27;20031;-38
2023/04/25 06:54:58;;;;;;;22.60;5.00;;;7.70;99.90;;;;;;5123321;27;20030;-37
2023/04/25 06:57:24;;;;;;;20.90;5.57;;;7.70;99.90;;;;;;5125599;27;20110;-38
2023/04/25 06:59:49;;;;;;;20.77;4.78;;;7.80;99.90;;;;;;5120229;27;20019;-37
2023/04/25 07:02:15;;;;;;;24.88;4.43;;;7.90;99.90;;;;;;5090279;28;20023;-37
2023/04/25 07:04:41;;;;;;;25.00;4.82;;;7.80;99.90;;;;;;5116513;27;20491;-37
2023/04/25 07:07:06;;;;;;;19.58;5.25;;;7.80;99.90;;;;;;5125956;28;20031;-38
2023/04/25 07:09:33;;;;;;;23.27;4.93;;;7.80;99.90;;;;;;5122473;27;20094;-38
2023/04/25 07:12:01;;;;;;;24.55;4.68;;;7.80;99.90;;;;;;5104473;28;20487;-37
2023/04/25 07:14:27;;;;;;;12.23;4.03;;;7.80;99.90;;;;;;5107010;28;20032;-37
2023/04/25 07:16:52;;;;;;;18.30;5.00;;;7.80;99.90;;;;;;5106032;28;20488;-37
2023/04/25 07:19:18;;;;;;;19.83;4.85;;;7.80;99.90;;;;;;5083184;28;20023;-37
2023/04/25 07:21:43;;;;;;;19.30;3.95;;;7.90;99.90;;;;;;5124651;27;20022;-37
2023/04/25 07:24:09;;;;;;;14.65;4.30;;;8.00;99.90;;;;;;5118760;27;20497;-37
2023/04/25 07:26:34;;;;;;;19.27;4.55;;;8.10;99.90;;;;;;5129846;27;20051;-38
2023/04/25 07:29:00;;;;;;;19.92;4.95;;;8.50;99.90;;;;;;5124450;27;20575;-37
2023/04/25 07:31:26;;;;;;;17.02;4.55;;;8.80;99.90;;;;;;5110226;28;20031;-37
2023/04/25 07:33:52;;;;;;;21.92;4.47;;;8.90;99.90;;;;;;5096759;27;20011;-38
2023/04/25 07:36:17;;;;;;;19.20;5.22;;;9.00;99.90;;;;;;5124630;27;20034;-37
2023/04/25 07:38:43;;;;;;;18.83;4.82;;;9.00;99.90;;;;;;5111749;27;20055;-37
2023/04/25 07:41:08;;;;;;;15.18;3.88;;;9.00;99.90;;;;;;5110793;27;20480;-37
2023/04/25 07:43:34;;;;;;;12.00;3.90;;;9.10;99.90;;;;;;5110552;28;20023;-37
2023/04/25 07:45:59;;;;;;;21.90;5.60;;;9.10;99.90;;;;;;5110560;28;20024;-37
2023/04/25 07:48:25;;;;;;;20.73;5.18;;;9.00;98.10;;;;;;5110333;28;20019;-37
2023/04/25 07:50:50;;;;;;;18.85;4.22;;;8.90;98.60;;;;;;5109698;28;20080;-37
2023/04/25 07:53:17;;;;;;;24.45;4.15;;;9.00;98.30;;;;;;5091336;28;20404;-37
2023/04/25 07:55:43;;;;;;;13.35;3.50;;;9.20;98.20;;;;;;5109218;27;20026;-37
2023/04/25 07:58:09;;;;;;;21.00;4.03;;;9.40;99.20;;;;;;5108796;28;20036;-37
2023/04/25 08:00:35;;;;;;;23.42;3.90;;;9.80;98.90;;;;;;5109154;28;20024;-38
2023/04/25 08:03:01;;;;;;;23.35;4.10;;;9.80;97.40;;;;;;5110075;28;20012;-37
2023/04/25 08:05:26;;;;;;;14.52;4.43;;;9.90;95.50;;;;;;5109289;28;20430;-37
2023/04/25 08:07:52;;;;;;;20.50;4.82;;;10.00;96.80;;;;;;5109097;27;20125;-38
2023/04/25 08:10:17;;;;;;;15.82;3.50;;;10.20;98.80;;;;;;5111383;27;20423;-38
2023/04/25 08:12:43;;;;;;;13.73;3.55;;;10.30;96.40;;;;;;5109735;28;20088;-38
2023/04/25 08:15:09;;;;;;;10.82;3.63;;;10.30;96.70;;;;;;5109471;28;20127;-37
2023/04/25 08:17:35;;;;;;;22.95;4.82;;;10.10;96.70;;;;;;5109507;28;20024;-38
2023/04/25 08:20:00;;;;;;;20.75;4.38;;;10.00;97.10;;;;;;5109849;28;20477;-38
2023/04/25 08:22:26;;;;;;;15.85;3.70;;;9.90;96.50;;;;;;5108861;28;20254;-38
2023/04/25 08:24:51;;;;;;;11.43;3.95;;;9.80;96.10;;;;;;5109644;28;20030;-38
2023/04/25 08:27:18;;;;;;;16.65;3.90;;;9.70;96.60;;;;;;5108701;28;20097;-38
2023/04/25 08:29:44;;;;;;;22.80;4.32;;;9.50;95.60;;;;;;5109091;27;20027;-38
2023/04/25 08:32:09;;;;;;;14.45;4.35;;;9.30;96.60;;;;;;5107684;27;20393;-38
2023/04/25 08:34:36;;;;;;;24.45;4.50;;;9.10;97.60;;;;;;5115211;27;20476;-38
2023/04/25 08:37:04;;;;;;;18.67;3.95;;;9.10;97.70;;;;;;5111536;27;20232;-38
2023/04/25 08:39:29;;;;;;;20.05;4.80;;;9.10;97.40;;;;;;5116411;27;20100;-38
2023/04/25 08:41:56;;;;;;;17.95;5.20;;;9.10;98.70;;;;;;5112193;27;20114;-38
2023/04/25 08:44:23;;;;;;;21.38;4.40;;;9.20;98.10;;;;;;5113737;27;20028;-38
2023/04/25 08:46:49;;;;;;;21.30;5.43;;;9.20;98.10;;;;;;5112323;27;20023;-38
2023/04/25 08:49:17;;;;;;;14.15;3.83;;;9.30;97.90;;;;;;5115079;27;20023;-38
2023/04/25 08:51:47;;;;;;;28.92;4.30;;;9.30;99.80;;;;;;5113156;27;20113;-38
2023/04/25 08:54:14;;;;;;;20.63;4.18;;;9.40;98.60;;;;;;5108397;27;20027;-38
2023/04/25 08:56:43;;;;;;;16.33;3.35;;;9.50;99.20;;;;;;5111772;27;20034;-38
2023/04/25 08:59:10;;;;;;;10.07;3.57;;;10.20;98.90;;;;;;5113195;27;20527;-38
2023/04/25 09:01:36;;;;;;;15.52;3.17;;;11.30;94.80;;;;;;5113301;27;20057;-38
2023/04/25 09:04:02;;;;;;;15.68;4.03;;;12.00;93.10;;;;;;5095713;28;20172;-38
2023/04/25 09:06:30;;;;;;;17.15;4.53;;;12.10;91.70;;;;;;5094361;27;20027;-38
2023/04/25 09:09:04;;;;;;;11.00;3.38;;;11.80;92.40;;;;;;5112200;27;20032;-38
2023/04/25 09:11:30;;;;;;;17.98;4.18;;;11.40;93.00;;;;;;5113859;27;20418;-38
2023/04/25 09:14:16;;;;;;;19.10;4.60;;;10.90;92.10;;;;;;5113264;27;20034;-38
2023/04/25 09:16:57;;;;;;;10.98;3.10;;;11.60;92.90;;;;;;5111989;27;20011;-39
2023/04/25 09:19:23;;;;;;;;;;;13.30;90.10;;;;;;5112720;27;20043;-37
2023/04/25 09:21:59;;;;;;;11.88;3.42;;;15.30;88.20;;;;;;5113453;27;19915;-37
2023/04/25 09:24:32;;;;;;;12.25;3.00;;;17.10;75.00;;;;;;5113947;27;20019;-37
2023/04/25 09:26:58;;;;;;;9.45;3.00;;;18.40;66.80;;;;;;5108766;27;20007;-37
2023/04/25 09:29:34;;;;;;;7.47;2.50;;;17.70;62.70;;;;;;5111054;27;20026;-37
2023/04/25 09:32:12;;;;;;;9.25;2.97;;;16.40;61.70;;;;;;5106017;27;20095;-38
2023/04/25 09:34:43;;;;;;;12.48;4.05;;;15.40;66.00;;;;;;5114248;27;20050;-37
2023/04/25 09:37:10;;;;;;;9.00;3.60;;;14.30;67.90;;;;;;5094017;27;20035;-37
2023/04/25 09:39:37;;;;;;;5.82;2.60;;;13.40;69.80;;;;;;5114857;27;20024;-37
2023/04/25 09:42:03;;;;;;;10.98;4.05;;;12.60;71.50;;;;;;5110271;27;20030;-37
2023/04/25 09:44:29;;;;;;;11.50;3.53;;;12.10;73.40;;;;;;5107846;27;20442;-37
2023/04/25 09:46:54;;;;;;;14.02;3.90;;;11.40;73.90;;;;;;5110869;27;20091;-37
2023/04/25 09:49:21;;;;;;;13.38;3.15;;;11.00;75.80;;;;;;5110742;27;20024;-37
2023/04/25 09:51:56;;;;;;;12.05;3.33;;;10.60;76.60;;;;;;5109359;27;21217;-37
2023/04/25 09:54:26;;;;;;;10.98;3.50;;;10.30;77.60;;;;;;5094159;27;20501;-36
2023/04/25 09:56:53;;;;;;;9.57;2.67;;;10.30;80.00;;;;;;5112220;27;20084;-36
2023/04/25 09:59:24;;;;;;;13.77;3.40;;;10.60;80.00;;;;;;5110003;27;20208;-36
2023/04/25 10:01:52;;;;;;;15.77;3.28;;;11.20;80.60;;;;;;5109046;27;20019;-37
2023/04/25 10:04:26;;;;;;;17.55;3.15;;;11.20;76.40;;;;;;5109886;27;20054;-37
2023/04/25 10:06:53;;;;;;;15.32;3.92;;;11.00;76.70;;;;;;5110332;27;20065;-36
2023/04/25 10:09:20;;;;;;;10.65;3.08;;;11.00;75.50;;;;;;5109129;27;20612;-37
2023/04/25 10:11:50;;;;;;;9.32;3.00;;;10.70;76.70;;;;;;5109863;27;20015;-39
2023/04/25 10:14:16;;;;;;;8.32;3.05;;;10.60;77.40;;;;;;5110745;27;20149;-37
2023/04/25 10:16:42;;;;;;;10.02;3.40;;;10.40;78.40;;;;;;5109085;27;20023;-37
2023/04/25 10:19:10;;;;;;;12.50;2.75;;;10.20;78.30;;;;;;5108369;27;20037;-37
2023/04/25 10:21:44;;;;;;;7.85;2.58;;;10.00;80.00;;;;;;5089453;28;20690;-37
2023/04/25 10:24:09;;;;;;;10.48;3.35;;;10.10;79.80;;;;;;5107061;28;20040;-37
2023/04/25 10:26:35;;;;;;;11.65;3.72;;;10.20;79.70;;;;;;5113797;27;20155;-37
2023/04/25 10:29:03;;;;;;;11.95;3.63;;;10.40;78.70;;;;;;5111086;27;20111;-37
2023/04/25 10:31:32;;;;;;;7.45;2.33;;;11.00;81.10;;;;;;5110766;27;20091;-37
2023/04/25 10:34:00;;;;;;;13.13;2.80;;;11.40;78.90;;;;;;5111503;27;20190;-37
2023/04/25 10:36:28;;;;;;;7.90;2.80;;;12.20;74.30;;;;;;5112257;27;20201;-37
2023/04/25 10:38:54;;;;;;;13.68;3.22;;;12.40;75.30;;;;;;5108315;27;20019;-37
2023/04/25 10:41:22;;;;;;;7.93;2.75;;;12.70;76.70;;;;;;5110680;27;20019;-38
2023/04/25 10:43:49;;;;;;;6.07;2.60;;;13.20;71.90;;;;;;5110903;27;20027;-37
2023/04/25 10:46:30;;;;;;;9.65;2.60;;;14.00;72.80;;;;;;5108761;27;20385;-37
2023/04/25 10:48:58;;;;;;;8.43;2.50;;;14.60;70.20;;;;;;5105949;27;20058;-38
2023/04/25 10:51:34;;;;;;;4.07;1.98;;;14.40;66.40;;;;;;5109905;27;20087;-38
2023/04/25 10:54:09;;;;;;;8.13;2.55;;;14.70;69.20;;;;;;5108322;28;20366;-38
2023/04/25 10:56:44;;;;;;;13.02;2.83;;;15.00;70.50;;;;;;5112966;27;20024;-38
2023/04/25 10:59:19;;;;;;;10.07;2.72;;;15.40;71.30;;;;;;5088650;28;20043;-38
2023/04/25 11:01:54;;;;;;;7.10;2.60;;;15.40;66.10;;;;;;5106136;27;20098;-38
2023/04/25 11:04:24;;;;;;;7.47;3.10;;;15.30;65.70;;;;;;5115076;27;20034;-37
2023/04/25 11:07:06;;;;;;;;;;;14.50;65.00;;;;;;5127618;28;20234;-37
2023/04/25 11:09:37;;;;;;;8.70;2.65;;;13.80;65.20;;;;;;5122045;28;19907;-37
2023/04/25 11:12:03;;;;;;;7.03;2.35;;;13.20;68.50;;;;;;5117186;28;20069;-37
2023/04/25 11:14:29;;;;;;;9.95;2.83;;;13.20;68.70;;;;;;5120877;28;20481;-38
2023/04/25 11:16:58;;;;;;;9.40;2.22;;;12.80;72.20;;;;;;5087884;28;20024;-37
2023/04/25 11:19:25;;;;;;;10.23;2.20;;;12.40;71.40;;;;;;5106497;28;20028;-37
2023/04/25 11:21:54;;;;;;;10.57;2.67;;;12.00;71.30;;;;;;5105191;28;20019;-37
2023/04/25 11:24:20;;;;;;;6.47;2.65;;;11.70;72.80;;;;;;5088063;28;20032;-37
2023/04/25 11:26:48;;;;;;;6.43;2.92;;;11.70;74.90;;;;;;5106476;28;20376;-37
2023/04/25 11:29:14;;;;;;;7.50;2.55;;;11.50;73.70;;;;;;5105612;28;20028;-37
2023/04/25 11:31:45;;;;;;;8.23;2.65;;;11.60;74.00;;;;;;5089178;28;20126;-37
2023/04/25 11:34:10;;;;;;;8.52;2.55;;;11.50;73.50;;;;;;5116775;28;20426;-37
2023/04/25 11:36:38;;;;;;;8.93;2.72;;;11.40;75.00;;;;;;5106347;28;20077;-37
2023/04/25 11:39:05;;;;;;;9.88;2.30;;;11.40;73.90;;;;;;5106695;28;20023;-37
2023/04/25 11:41:31;;;;;;;8.80;2.50;;;11.00;74.10;;;;;;5103206;28;20043;-37
2023/04/25 11:43:56;;;;;;;8.68;2.67;;;10.80;77.10;;;;;;5105644;28;20020;-37
2023/04/25 11:46:22;;;;;;;12.20;2.80;;;10.60;78.40;;;;;;5105676;28;20019;-37
2023/04/25 11:48:50;;;;;;;9.30;2.38;;;10.40;78.30;;;;;;5103971;28;20028;-38
2023/04/25 11:51:15;;;;;;;12.43;3.17;;;10.30;79.50;;;;;;5086413;28;20097;-37
2023/04/25 11:53:43;;;;;;;10.73;2.72;;;10.20;81.20;;;;;;5085812;28;20035;-38
2023/04/25 11:56:11;;;;;;;10.20;2.42;;;10.00;80.20;;;;;;5106804;28;20259;-38
2023/04/25 11:59:00;;;;;;;10.15;2.85;;;10.00;81.10;;;;;;5103703;28;20028;-38
2023/04/25 12:01:28;;;;;;;10.95;2.60;;;10.30;81.20;;;;;;5104529;28;20020;-38
2023/04/25 12:03:53;;;;;;;11.23;2.75;;;10.40;82.90;;;;;;5101862;28;20024;-37
2023/04/25 12:06:19;;;;;;;12.13;2.30;;;10.60;82.20;;;;;;5104705;28;20380;-38
2023/04/25 12:09:03;;;;;;;7.40;2.30;;;10.70;83.60;;;;;;5088188;28;20019;-38
2023/04/25 12:11:40;;;;;;;10.77;3.13;;;11.10;81.00;;;;;;5106065;28;20567;-37
2023/04/25 12:14:05;;;;;;;12.60;2.50;;;11.20;81.00;;;;;;5108255;28;20546;-38
2023/04/25 12:16:45;;;;;;;5.57;2.13;;;12.20;81.00;;;;;;5108704;27;20031;-38
2023/04/25 12:19:14;;;;;;;7.30;2.10;;;13.00;77.90;;;;;;5108463;28;20027;-38
2023/04/25 12:21:40;;;;;;;7.20;2.28;;;13.50;77.70;;;;;;5108049;28;20035;-38
2023/04/25 12:24:16;;;;;;;9.38;2.08;;;13.40;73.70;;;;;;5107583;27;20036;-38
2023/04/25 12:26:58;;;;;;;9.07;2.00;;;13.40;71.80;;;;;;5105624;28;20100;-38
2023/04/25 12:29:27;;;;;;;4.78;1.95;;;13.90;75.50;;;;;;5104561;28;20460;-38
2023/04/25 12:31:54;;;;;;;4.45;1.60;;;14.30;68.00;;;;;;5106196;27;20725;-38
2023/04/25 12:34:20;;;;;;;5.82;1.58;;;14.00;71.20;;;;;;5106004;28;20080;-38
2023/04/25 12:36:46;;;;;;;3.67;1.40;;;13.80;70.10;;;;;;5088964;28;20035;-38
2023/04/25 12:39:19;;;;;;;5.22;1.65;;;13.90;74.10;;;;;;5089112;28;20039;-42
2023/04/25 12:41:46;;;;;;;7.50;1.60;;;14.10;69.00;;;;;;5108076;28;20422;-44
2023/04/25 12:44:12;;;;;;;7.68;2.10;;;14.20;69.20;;;;;;5108275;28;20046;-39